sensor_id;sensor_type;location;lat;lon;timestamp;P1;durP1;ratioP1;P2;durP2;ratioP2
57893;SDS011;43710;47.460;19.034;2022-09-13T06:59:27;5.47;;;3.50;;
57893;SDS011;43710;47.460;19.034;2022-09-13T07:02:29;5.07;;;3.45;;
57893;SDS011;43710;47.460;19.034;2022-09-13T07:05:31;6.93;;;3.60;;
57893;SDS011;43710;47.460;19.034;2022-09-13T07:08:33;6.65;;;3.92;;
57893;SDS011;43710;47.460;19.034;2022-09-13T07:11:36;11.40;;;4.18;;
57893;SDS011;43710;47.460;19.034;2022-09-13T07:14:40;10.40;;;4.22;;
57893;SDS011;43710;47.460;19.034;2022-09-13T07:17:42;7.43;;;4.32;;
57893;SDS011;43710;47.460;19.034;2022-09-13T07:20:45;7.20;;;3.50;;
57893;SDS011;43710;47.460;19.034;2022-09-13T07:23:47;8.15;;;3.83;;
57893;SDS011;43710;47.460;19.034;2022-09-13T07:26:50;21.00;;;4.30;;
57893;SDS011;43710;47.460;19.034;2022-09-13T07:29:52;5.95;;;3.03;;
57893;SDS011;43710;47.460;19.034;2022-09-13T07:32:54;8.15;;;3.30;;
57893;SDS011;43710;47.460;19.034;2022-09-13T07:35:56;5.18;;;3.05;;
57893;SDS011;43710;47.460;19.034;2022-09-13T07:39:00;7.37;;;2.97;;
57893;SDS011;43710;47.460;19.034;2022-09-13T07:42:03;9.90;;;3.90;;
57893;SDS011;43710;47.460;19.034;2022-09-13T07:45:06;10.90;;;3.45;;
57893;SDS011;43710;47.460;19.034;2022-09-13T07:48:08;9.23;;;3.33;;
57893;SDS011;43710;47.460;19.034;2022-09-13T07:51:17;6.95;;;3.20;;
57893;SDS011;43710;47.460;19.034;2022-09-13T07:54:21;8.43;;;3.67;;
57893;SDS011;43710;47.460;19.034;2022-09-13T07:57:23;8.55;;;4.10;;
57893;SDS011;43710;47.460;19.034;2022-09-13T08:00:25;9.18;;;4.15;;
57893;SDS011;43710;47.460;19.034;2022-09-13T08:03:28;9.43;;;4.07;;
57893;SDS011;43710;47.460;19.034;2022-09-13T08:06:31;8.43;;;3.80;;
57893;SDS011;43710;47.460;19.034;2022-09-13T08:09:35;22.67;;;3.72;;
57893;SDS011;43710;47.460;19.034;2022-09-13T08:12:37;7.78;;;4.37;;
57893;SDS011;43710;47.460;19.034;2022-09-13T08:15:39;14.68;;;4.30;;
57893;SDS011;43710;47.460;19.034;2022-09-13T08:18:42;14.77;;;4.60;;
57893;SDS011;43710;47.460;19.034;2022-09-13T08:21:48;8.38;;;4.20;;
57893;SDS011;43710;47.460;19.034;2022-09-13T08:24:50;10.18;;;3.70;;
57893;SDS011;43710;47.460;19.034;2022-09-13T08:27:53;12.30;;;3.67;;
57893;SDS011;43710;47.460;19.034;2022-09-13T08:30:55;17.52;;;8.77;;
57893;SDS011;43710;47.460;19.034;2022-09-13T08:33:57;11.30;;;3.45;;
57893;SDS011;43710;47.460;19.034;2022-09-13T08:36:59;6.00;;;3.30;;
57893;SDS011;43710;47.460;19.034;2022-09-13T08:40:02;7.30;;;3.40;;
57893;SDS011;43710;47.460;19.034;2022-09-13T08:58:49;8.82;;;3.00;;
57893;SDS011;43710;47.460;19.034;2022-09-13T09:05:17;7.12;;;3.58;;
57893;SDS011;43710;47.460;19.034;2022-09-13T09:09:06;9.93;;;2.80;;
57893;SDS011;43710;47.460;19.034;2022-09-13T09:11:55;6.87;;;3.00;;
57893;SDS011;43710;47.460;19.034;2022-09-13T09:15:04;11.45;;;3.75;;
57893;SDS011;43710;47.460;19.034;2022-09-13T09:18:30;18.17;;;3.75;;
57893;SDS011;43710;47.460;19.034;2022-09-13T09:21:35;4.87;;;2.75;;
57893;SDS011;43710;47.460;19.034;2022-09-13T09:24:38;11.70;;;2.45;;
57893;SDS011;43710;47.460;19.034;2022-09-13T09:27:45;4.60;;;2.45;;
57893;SDS011;43710;47.460;19.034;2022-09-13T09:30:57;12.32;;;2.97;;
57893;SDS011;43710;47.460;19.034;2022-09-13T09:34:07;4.32;;;2.35;;
57893;SDS011;43710;47.460;19.034;2022-09-13T09:37:19;7.10;;;2.70;;
57893;SDS011;43710;47.460;19.034;2022-09-13T09:40:23;3.95;;;2.60;;
57893;SDS011;43710;47.460;19.034;2022-09-13T09:43:38;8.82;;;2.83;;
57893;SDS011;43710;47.460;19.034;2022-09-13T09:46:57;4.78;;;2.42;;
57893;SDS011;43710;47.460;19.034;2022-09-13T09:50:08;7.60;;;2.78;;
57893;SDS011;43710;47.460;19.034;2022-09-13T09:53:36;5.15;;;2.62;;
57893;SDS011;43710;47.460;19.034;2022-09-13T09:56:51;4.45;;;2.58;;
57893;SDS011;43710;47.460;19.034;2022-09-13T10:00:09;8.57;;;3.33;;
57893;SDS011;43710;47.460;19.034;2022-09-13T10:03:16;11.02;;;3.80;;
57893;SDS011;43710;47.460;19.034;2022-09-13T10:06:21;8.00;;;3.20;;
57893;SDS011;43710;47.460;19.034;2022-09-13T10:09:26;4.65;;;2.60;;
57893;SDS011;43710;47.460;19.034;2022-09-13T10:12:28;5.68;;;2.58;;
57893;SDS011;43710;47.460;19.034;2022-09-13T10:15:34;4.55;;;3.08;;
57893;SDS011;43710;47.460;19.034;2022-09-13T10:18:37;5.85;;;3.70;;
57893;SDS011;43710;47.460;19.034;2022-09-13T10:21:58;5.18;;;2.80;;
57893;SDS011;43710;47.460;19.034;2022-09-13T10:28:16;6.75;;;3.12;;
57893;SDS011;43710;47.460;19.034;2022-09-13T10:31:20;6.37;;;3.45;;
57893;SDS011;43710;47.460;19.034;2022-09-13T10:34:30;4.60;;;3.25;;
57893;SDS011;43710;47.460;19.034;2022-09-13T10:37:35;7.82;;;3.55;;
57893;SDS011;43710;47.460;19.034;2022-09-13T10:40:38;6.90;;;3.40;;
57893;SDS011;43710;47.460;19.034;2022-09-13T10:43:40;5.80;;;3.40;;
57893;SDS011;43710;47.460;19.034;2022-09-13T10:46:43;10.20;;;3.45;;
57893;SDS011;43710;47.460;19.034;2022-09-13T10:49:51;7.15;;;3.62;;
57893;SDS011;43710;47.460;19.034;2022-09-13T10:52:56;8.37;;;3.40;;
57893;SDS011;43710;47.460;19.034;2022-09-13T10:55:59;9.25;;;3.37;;
57893;SDS011;43710;47.460;19.034;2022-09-13T11:05:52;6.87;;;3.25;;
57893;SDS011;43710;47.460;19.034;2022-09-13T11:09:12;10.88;;;3.50;;
57893;SDS011;43710;47.460;19.034;2022-09-13T11:12:18;6.25;;;3.50;;
57893;SDS011;43710;47.460;19.034;2022-09-13T11:15:26;6.50;;;3.00;;
57893;SDS011;43710;47.460;19.034;2022-09-13T11:18:51;8.13;;;3.72;;
57893;SDS011;43710;47.460;19.034;2022-09-13T11:22:23;6.30;;;3.08;;
57893;SDS011;43710;47.460;19.034;2022-09-13T11:42:28;7.25;;;3.12;;
57893;SDS011;43710;47.460;19.034;2022-09-13T11:45:53;5.73;;;3.23;;
57893;SDS011;43710;47.460;19.034;2022-09-13T11:49:13;8.95;;;3.42;;
57893;SDS011;43710;47.460;19.034;2022-09-13T11:52:33;9.10;;;2.72;;
57893;SDS011;43710;47.460;19.034;2022-09-13T11:55:42;3.22;;;2.40;;
57893;SDS011;43710;47.460;19.034;2022-09-13T11:58:53;6.35;;;2.47;;
57893;SDS011;43710;47.460;19.034;2022-09-13T12:02:11;5.80;;;3.35;;
57893;SDS011;43710;47.460;19.034;2022-09-13T12:05:21;9.93;;;3.30;;
57893;SDS011;43710;47.460;19.034;2022-09-13T12:08:28;8.15;;;2.83;;
57893;SDS011;43710;47.460;19.034;2022-09-13T12:11:35;5.50;;;2.70;;
57893;SDS011;43710;47.460;19.034;2022-09-13T12:21:36;4.45;;;2.42;;
57893;SDS011;43710;47.460;19.034;2022-09-13T12:24:50;3.97;;;2.55;;
57893;SDS011;43710;47.460;19.034;2022-09-13T12:27:58;5.00;;;2.30;;
57893;SDS011;43710;47.460;19.034;2022-09-13T12:31:15;3.08;;;2.20;;
57893;SDS011;43710;47.460;19.034;2022-09-13T12:34:22;2.47;;;2.10;;
57893;SDS011;43710;47.460;19.034;2022-09-13T12:41:22;4.03;;;2.40;;
57893;SDS011;43710;47.460;19.034;2022-09-13T12:44:31;2.92;;;2.00;;
57893;SDS011;43710;47.460;19.034;2022-09-13T12:51:14;4.65;;;2.47;;
57893;SDS011;43710;47.460;19.034;2022-09-13T13:01:29;4.05;;;2.45;;
57893;SDS011;43710;47.460;19.034;2022-09-13T13:04:33;3.62;;;2.15;;
57893;SDS011;43710;47.460;19.034;2022-09-13T13:07:37;3.12;;;2.30;;
57893;SDS011;43710;47.460;19.034;2022-09-13T13:10:41;3.28;;;2.28;;
57893;SDS011;43710;47.460;19.034;2022-09-13T13:13:44;3.53;;;2.40;;
57893;SDS011;43710;47.460;19.034;2022-09-13T13:27:19;14.70;;;2.80;;
57893;SDS011;43710;47.460;19.034;2022-09-13T13:30:49;5.80;;;2.20;;
57893;SDS011;43710;47.460;19.034;2022-09-13T13:40:23;3.30;;;2.30;;
57893;SDS011;43710;47.460;19.034;2022-09-13T13:43:28;9.30;;;2.70;;
57893;SDS011;43710;47.460;19.034;2022-09-13T13:46:32;12.80;;;2.53;;
57893;SDS011;43710;47.460;19.034;2022-09-13T13:55:48;5.10;;;2.17;;
57893;SDS011;43710;47.460;19.034;2022-09-13T13:59:12;12.25;;;2.45;;
57893;SDS011;43710;47.460;19.034;2022-09-13T14:02:20;3.95;;;2.20;;
57893;SDS011;43710;47.460;19.034;2022-09-13T14:16:03;13.95;;;2.87;;
57893;SDS011;43710;47.460;19.034;2022-09-13T14:22:25;8.07;;;2.15;;
57893;SDS011;43710;47.460;19.034;2022-09-13T14:25:29;5.05;;;2.10;;
57893;SDS011;43710;47.460;19.034;2022-09-13T14:28:31;4.55;;;2.40;;
57893;SDS011;43710;47.460;19.034;2022-09-13T14:31:34;4.82;;;2.20;;
57893;SDS011;43710;47.460;19.034;2022-09-13T14:34:36;14.75;;;2.87;;
57893;SDS011;43710;47.460;19.034;2022-09-13T14:37:40;6.07;;;2.28;;
57893;SDS011;43710;47.460;19.034;2022-09-13T14:40:45;6.12;;;2.40;;
57893;SDS011;43710;47.460;19.034;2022-09-13T14:43:49;5.32;;;2.25;;
57893;SDS011;43710;47.460;19.034;2022-09-13T14:46:57;3.35;;;1.98;;
57893;SDS011;43710;47.460;19.034;2022-09-13T14:50:11;3.20;;;1.95;;
57893;SDS011;43710;47.460;19.034;2022-09-13T14:53:20;4.25;;;2.15;;
57893;SDS011;43710;47.460;19.034;2022-09-13T14:56:27;8.30;;;2.10;;
57893;SDS011;43710;47.460;19.034;2022-09-13T14:59:43;3.05;;;2.10;;
57893;SDS011;43710;47.460;19.034;2022-09-13T15:02:51;2.70;;;2.08;;
57893;SDS011;43710;47.460;19.034;2022-09-13T15:06:00;4.10;;;1.87;;
57893;SDS011;43710;47.460;19.034;2022-09-13T15:12:23;4.37;;;2.33;;
57893;SDS011;43710;47.460;19.034;2022-09-13T15:18:31;3.25;;;2.00;;
57893;SDS011;43710;47.460;19.034;2022-09-13T15:21:38;5.18;;;2.05;;
57893;SDS011;43710;47.460;19.034;2022-09-13T15:24:42;3.62;;;2.28;;
57893;SDS011;43710;47.460;19.034;2022-09-13T15:27:49;4.47;;;2.10;;
57893;SDS011;43710;47.460;19.034;2022-09-13T15:30:51;3.50;;;1.77;;
57893;SDS011;43710;47.460;19.034;2022-09-13T15:37:26;3.40;;;1.90;;
57893;SDS011;43710;47.460;19.034;2022-09-13T15:40:39;2.70;;;1.90;;
57893;SDS011;43710;47.460;19.034;2022-09-13T15:43:46;3.58;;;1.67;;
57893;SDS011;43710;47.460;19.034;2022-09-13T15:46:52;2.75;;;1.90;;
57893;SDS011;43710;47.460;19.034;2022-09-13T15:49:56;2.33;;;2.00;;
57893;SDS011;43710;47.460;19.034;2022-09-13T15:52:59;2.60;;;1.60;;
57893;SDS011;43710;47.460;19.034;2022-09-13T15:56:02;2.37;;;2.05;;
57893;SDS011;43710;47.460;19.034;2022-09-13T15:59:05;3.97;;;2.28;;
57893;SDS011;43710;47.460;19.034;2022-09-13T16:02:15;3.28;;;1.95;;
57893;SDS011;43710;47.460;19.034;2022-09-13T16:05:22;2.95;;;2.37;;
57893;SDS011;43710;47.460;19.034;2022-09-13T16:08:24;4.65;;;2.37;;
57893;SDS011;43710;47.460;19.034;2022-09-13T16:11:27;3.42;;;1.92;;
57893;SDS011;43710;47.460;19.034;2022-09-13T16:14:29;5.82;;;2.30;;
57893;SDS011;43710;47.460;19.034;2022-09-13T16:17:32;5.12;;;2.40;;
57893;SDS011;43710;47.460;19.034;2022-09-13T16:20:34;4.80;;;2.00;;
57893;SDS011;43710;47.460;19.034;2022-09-13T16:23:36;3.45;;;2.20;;
